Time;durP1;ratioP1;P1;durP2;ratioP2;P2;SDS_P1;SDS_P2;PMS_P1;PMS_P2;Temp;Humidity;BMP_temperature;BMP_pressure;BME280_temperature;BME280_humidity;BME280_pressure;Samples;Min_cycle;Max_cycle;Signal;HPM_P1;HPM_P2
2023/04/02 00:01:45;;;;;;;1999.90;999.90;;;;;;;6.20;100.00;97020.34;5153847;27;20568;-86
2023/04/02 00:04:22;;;;;;;1999.90;999.90;;;;;;;6.24;100.00;97015.16;5152391;27;20003;-84
2023/04/02 00:06:53;;;;;;;1999.90;999.90;;;;;;;6.17;100.00;97007.34;5150515;27;20035;-85
2023/04/02 00:09:30;;;;;;;1999.90;999.90;;;;;;;6.11;100.00;97013.94;5150514;27;20047;-88
2023/04/02 00:11:56;;;;;;;1999.90;999.90;;;;;;;6.13;100.00;97017.19;5154416;27;20072;-90
2023/04/02 00:14:28;;;;;;;1999.90;999.90;;;;;;;6.03;100.00;97011.06;5157469;27;20025;-89
2023/04/02 00:16:55;;;;;;;1999.90;999.90;;;;;;;5.87;100.00;97008.53;5158244;27;20011;-85
2023/04/02 00:19:30;;;;;;;1999.90;999.90;;;;;;;5.81;100.00;97009.66;5136348;27;20027;-89
2023/04/02 00:21:57;;;;;;;1999.90;999.90;;;;;;;5.81;100.00;97009.66;5140904;27;20035;-85
2023/04/02 00:24:23;;;;;;;1999.90;999.90;;;;;;;5.80;100.00;97018.06;5142399;27;20050;-85
2023/04/02 00:26:50;;;;;;;1999.90;999.90;;;;;;;5.76;100.00;97017.06;5149923;27;20027;-86
2023/04/02 00:29:18;;;;;;;1999.90;999.90;;;;;;;5.72;100.00;97002.44;5152184;27;20027;-84
2023/04/02 00:31:47;;;;;;;1999.90;999.90;;;;;;;5.75;100.00;97015.44;5153645;27;20022;-88
2023/04/02 00:34:29;;;;;;;1999.90;999.90;;;;;;;5.74;100.00;96997.53;5154654;27;20027;-88
2023/04/02 00:36:55;;;;;;;1999.90;999.90;;;;;;;5.76;100.00;97008.91;5144128;27;20035;-87
2023/04/02 00:39:27;;;;;;;1999.90;999.90;;;;;;;5.81;100.00;97009.66;5155643;27;20092;-91
2023/04/02 00:42:13;;;;;;;1999.90;999.90;;;;;;;5.80;100.00;97018.06;5137709;27;19999;-86
2023/04/02 00:44:44;;;;;;;1999.90;999.90;;;;;;;5.72;100.00;97010.56;5155745;27;20019;-84
2023/04/02 00:47:23;;;;;;;1999.90;999.90;;;;;;;5.82;100.00;97021.34;5158291;27;20022;-82
2023/04/02 00:49:56;;;;;;;1999.90;999.90;;;;;;;5.79;100.00;97011.88;5160882;27;20038;-78
2023/04/02 00:52:25;;;;;;;1999.90;999.90;;;;;;;5.95;100.00;97028.81;5160617;27;20018;-84
2023/04/02 00:54:57;;;;;;;1999.90;999.90;;;;;;;5.84;100.00;97019.13;5158498;27;20023;-86
2023/04/02 00:57:24;;;;;;;1999.90;999.90;;;;;;;5.81;100.00;97008.84;5159937;27;20031;-87
2023/04/02 01:00:06;;;;;;;1999.90;999.90;;;;;;;5.93;100.00;97033.72;5159389;27;20090;-85
2023/04/02 01:02:34;;;;;;;1999.90;999.90;;;;;;;5.97;100.00;97026.63;5160012;27;20011;-84
2023/04/02 01:05:04;;;;;;;1999.90;999.90;;;;;;;5.97;100.00;97037.47;5159805;27;20071;-85
2023/04/02 01:07:36;;;;;;;1999.90;999.90;;;;;;;5.92;100.00;97032.09;5159847;27;20028;-79
2023/04/02 01:10:23;;;;;;;1999.90;999.90;;;;;;;5.88;100.00;97033.78;5160315;27;20034;-80
2023/04/02 01:13:09;;;;;;;1999.90;999.90;;;;;;;5.96;100.00;97033.13;5160285;27;20022;-85
2023/04/02 01:15:55;;;;;;;1999.90;999.90;;;;;;;5.92;100.00;97026.66;5148841;27;20057;-85
2023/04/02 01:18:49;;;;;;;1999.90;999.90;;;;;;;6.06;100.00;97032.22;5142089;27;20039;-87
2023/04/02 01:21:20;;;;;;;1999.90;999.90;;;;;;;6.10;100.00;97044.94;5159825;27;20075;-86
2023/04/02 01:24:09;;;;;;;1999.90;999.90;;;;;;;6.05;100.00;97038.72;5159644;27;20008;-80
2023/04/02 01:26:54;;;;;;;1999.90;999.90;;;;;;;6.07;100.00;97041.97;5160348;27;20035;-85
2023/04/02 01:29:34;;;;;;;1999.90;999.90;;;;;;;5.99;100.00;97029.84;5160106;27;20019;-76
2023/04/02 01:32:21;;;;;;;1999.90;999.90;;;;;;;6.02;100.00;97029.25;5142479;27;20035;-79
2023/04/02 01:34:49;;;;;;;1999.90;999.90;;;;;;;5.93;100.00;97033.72;5159791;27;20075;-85
2023/04/02 01:37:27;;;;;;;1999.90;999.90;;;;;;;6.00;100.00;97039.59;5159924;27;20947;-83
2023/04/02 01:40:16;;;;;;;1999.90;999.90;;;;;;;5.95;100.00;97031.53;5159926;27;20012;-75
2023/04/02 01:43:07;;;;;;;1999.90;999.90;;;;;;;5.99;100.00;97029.03;5128005;27;20031;-83
2023/04/02 01:45:33;;;;;;;1999.90;999.90;;;;;;;5.93;100.00;97029.09;5159558;27;20031;-82
2023/04/02 01:48:01;;;;;;;1999.90;999.90;;;;;;;5.99;100.00;97026.31;5159672;27;20011;-79
2023/04/02 01:50:32;;;;;;;1999.90;999.90;;;;;;;5.94;100.00;97029.91;5159819;27;20007;-79
2023/04/02 01:53:04;;;;;;;1999.90;999.90;;;;;;;5.83;100.00;97029.16;5159611;27;20049;-84
2023/04/02 01:55:37;;;;;;;1999.90;999.90;;;;;;;5.83;100.00;97029.16;5159426;27;20007;-83
2023/04/02 01:58:03;;;;;;;1999.90;999.90;;;;;;;5.82;100.00;97022.16;5159707;27;20008;-82
2023/04/02 02:00:31;;;;;;;1999.90;999.90;;;;;;;5.89;100.00;97016.38;5159127;27;20059;-84
2023/04/02 02:03:00;;;;;;;1999.90;999.90;;;;;;;5.90;100.00;97026.97;5158856;27;20046;-86
2023/04/02 02:05:26;;;;;;;1999.90;999.90;;;;;;;5.89;100.00;97032.66;5159331;27;20060;-82
2023/04/02 02:07:55;;;;;;;1999.90;999.90;;;;;;;5.91;100.00;97027.78;5159430;27;20051;-83
2023/04/02 02:10:27;;;;;;;1999.90;999.90;;;;;;;5.91;100.00;97035.91;5159153;27;20019;-80
2023/04/02 02:12:53;;;;;;;1999.90;999.90;;;;;;;5.85;100.00;97046.03;5159364;27;20094;-79
2023/04/02 02:15:21;;;;;;;1999.90;999.90;;;;;;;5.80;100.00;97039.78;5159119;27;20015;-77
2023/04/02 02:17:48;;;;;;;1999.90;999.90;;;;;;;5.67;100.00;97045.91;5159141;27;20035;-80
2023/04/02 02:20:14;;;;;;;1999.90;999.90;;;;;;;5.68;100.00;97044.78;5159383;27;20019;-77
2023/04/02 02:22:45;;;;;;;1999.90;999.90;;;;;;;5.68;100.00;97045.59;5159033;27;20020;-85
2023/04/02 02:25:17;;;;;;;1999.90;999.90;;;;;;;5.62;100.00;97056.78;5158928;27;20039;-85
2023/04/02 02:27:43;;;;;;;1999.90;999.90;;;;;;;5.69;100.00;97057.28;5159517;27;20027;-82
2023/04/02 02:30:30;;;;;;;1999.90;999.90;;;;;;;5.64;100.00;97060.03;5140662;27;20015;-83
2023/04/02 02:33:07;;;;;;;1999.90;999.90;;;;;;;5.56;100.00;97060.66;5158159;28;20027;-87
2023/04/02 02:35:41;;;;;;;1999.90;999.90;;;;;;;5.43;100.00;97055.88;5158790;27;21015;-83
2023/04/02 02:38:25;;;;;;;1999.90;999.90;;;;;;;5.46;100.00;97060.72;5158953;27;20007;-80
2023/04/02 02:40:57;;;;;;;1999.90;999.90;;;;;;;5.40;100.00;97052.66;5159256;27;20034;-87
2023/04/02 02:43:23;;;;;;;1999.90;999.90;;;;;;;5.35;100.00;97055.41;5158702;27;20007;-79
2023/04/02 02:45:51;;;;;;;1999.90;999.90;;;;;;;5.39;100.00;97053.72;5159128;27;20075;-77
2023/04/02 02:48:20;;;;;;;1999.90;999.90;;;;;;;5.25;100.00;97055.50;5158900;27;20030;-76
2023/04/02 02:50:45;;;;;;;1999.90;999.90;;;;;;;5.17;100.00;97061.50;5159170;27;20027;-81
2023/04/02 02:53:18;;;;;;;1999.90;999.90;;;;;;;5.12;100.00;97066.97;5159148;27;20011;-78
2023/04/02 02:55:44;;;;;;;1999.90;999.90;;;;;;;5.17;100.00;97060.72;5159164;27;20073;-75
2023/04/02 02:58:42;;;;;;;1999.90;999.90;;;;;;;5.24;100.00;97066.59;5159599;27;20015;-81
2023/04/02 03:01:08;;;;;;;1999.90;999.90;;;;;;;5.22;100.00;97066.91;5145757;27;20087;-83
2023/04/02 03:03:33;;;;;;;1999.90;999.90;;;;;;;5.20;100.00;97074.50;5159135;27;20074;-80
2023/04/02 03:06:06;;;;;;;1999.90;999.90;;;;;;;4.98;100.00;97057.84;5158921;27;20042;-78
2023/04/02 03:08:31;;;;;;;1999.90;999.90;;;;;;;5.00;100.00;97069.22;5158629;27;20054;-79
2023/04/02 03:11:15;;;;;;;1999.90;999.90;;;;;;;4.97;100.00;97069.78;5158868;27;20039;-77
2023/04/02 03:13:46;;;;;;;1999.90;999.90;;;;;;;5.05;100.00;97077.31;5158866;27;20007;-81
2023/04/02 03:16:11;;;;;;;1999.90;999.90;;;;;;;5.10;100.00;97076.47;5158930;27;20069;-78
2023/04/02 03:18:47;;;;;;;1999.90;999.90;;;;;;;5.06;100.00;97067.28;5158825;27;20023;-76
2023/04/02 03:21:40;;;;;;;1999.90;999.90;;;;;;;5.08;100.00;97075.94;5141370;27;20019;-78
2023/04/02 03:24:17;;;;;;;1999.90;999.90;;;;;;;5.08;100.00;97071.31;5158775;27;20039;-77
2023/04/02 03:26:51;;;;;;;1999.90;999.90;;;;;;;5.08;100.00;97075.94;5158468;27;20035;-78
2023/04/02 03:29:31;;;;;;;1999.90;999.90;;;;;;;5.03;100.00;97063.25;5161336;27;20007;-78
2023/04/02 03:32:04;;;;;;;1999.90;999.90;;;;;;;5.08;100.00;97060.50;5159279;27;20048;-83
2023/04/02 03:34:42;;;;;;;1999.90;999.90;;;;;;;5.08;100.00;97082.16;5162265;27;20145;-75
2023/04/02 03:37:31;;;;;;;1999.90;999.90;;;;;;;4.90;100.00;97055.75;5144807;27;20030;-76
2023/04/02 03:40:07;;;;;;;1999.90;999.90;;;;;;;5.11;100.00;97084.31;5162437;27;20019;-75
2023/04/02 03:43:02;;;;;;;1999.90;999.90;;;;;;;5.16;100.00;97086.19;5162228;27;20084;-74
2023/04/02 03:45:37;;;;;;;1999.90;999.90;;;;;;;5.16;100.00;97078.88;5136343;27;20023;-76
2023/04/02 03:48:17;;;;;;;1999.90;999.90;;;;;;;5.18;100.00;97089.41;5162162;27;20035;-77
2023/04/02 03:51:07;;;;;;;1999.90;999.90;;;;;;;5.18;100.00;97092.13;5162144;27;20030;-75
2023/04/02 03:53:33;;;;;;;1999.90;999.90;;;;;;;5.10;100.00;97085.44;5162047;27;20023;-75
2023/04/02 03:56:01;;;;;;;1999.90;999.90;;;;;;;5.20;100.00;97085.34;5161961;27;20023;-75
2023/04/02 03:58:36;;;;;;;1999.90;999.90;;;;;;;5.16;100.00;97088.91;5161320;27;20027;-83
2023/04/02 04:01:25;;;;;;;1999.90;999.90;;;;;;;5.22;100.00;97091.28;5161592;27;20056;-88
2023/04/02 04:03:53;;;;;;;1999.90;999.90;;;;;;;5.25;100.00;97092.63;5161711;27;20019;-76
2023/04/02 04:06:32;;;;;;;1999.90;999.90;;;;;;;5.30;100.00;97096.09;5161937;27;20043;-76
2023/04/02 04:09:08;;;;;;;1999.90;999.90;;;;;;;5.31;100.00;97095.03;5161622;27;20024;-76
2023/04/02 04:11:37;;;;;;;1999.90;999.90;;;;;;;5.32;100.00;97088.53;5161614;27;20043;-77
2023/04/02 04:14:12;;;;;;;1999.90;999.90;;;;;;;5.29;100.00;97078.22;5161419;27;20015;-81
2023/04/02 04:16:48;;;;;;;1999.90;999.90;;;;;;;5.39;100.00;97094.41;5161340;27;20023;-81
2023/04/02 04:19:20;;;;;;;1999.90;999.90;;;;;;;5.35;100.00;97106.94;5161246;27;20007;-77
2023/04/02 04:21:46;;;;;;;1999.90;999.90;;;;;;;5.35;100.00;97106.13;5161290;27;20008;-76
2023/04/02 04:24:21;;;;;;;1999.90;999.90;;;;;;;5.28;100.00;97117.28;5161234;27;20012;-80
2023/04/02 04:27:02;;;;;;;1999.90;999.90;;;;;;;5.31;100.00;97132.97;5161103;27;20011;-83
2023/04/02 04:29:46;;;;;;;1999.90;999.90;;;;;;;5.32;100.00;97129.19;5161244;27;20135;-78
2023/04/02 04:32:30;;;;;;;1999.90;999.90;;;;;;;5.17;100.00;97125.78;5143463;27;20060;-76
2023/04/02 04:35:07;;;;;;;1999.90;999.90;;;;;;;5.28;100.00;97135.44;5160820;27;20078;-76
2023/04/02 04:37:41;;;;;;;1999.90;999.90;;;;;;;5.26;100.00;97130.28;5160870;27;20018;-78
2023/04/02 04:40:17;;;;;;;1999.90;999.90;;;;;;;5.30;100.00;97133.25;5160465;27;21017;-82
2023/04/02 04:42:47;;;;;;;1999.90;999.90;;;;;;;5.26;100.00;97121.38;5160712;27;20045;-83
2023/04/02 04:45:30;;;;;;;1999.90;999.90;;;;;;;5.31;100.00;97138.41;5160980;27;20007;-86
2023/04/02 04:48:07;;;;;;;1999.90;999.90;;;;;;;5.23;100.00;97141.69;5161026;27;20026;-79
2023/04/02 04:50:43;;;;;;;1999.90;999.90;;;;;;;5.18;100.00;97138.22;5161071;27;20035;-80
2023/04/02 04:53:16;;;;;;;1999.90;999.90;;;;;;;5.14;100.00;97140.66;5160923;27;20027;-76
2023/04/02 04:55:43;;;;;;;1999.90;999.90;;;;;;;5.32;100.00;97150.88;5158477;27;20079;-79
2023/04/02 04:58:21;;;;;;;1999.90;999.90;;;;;;;5.45;100.00;97151.31;5159173;27;20022;-88
2023/04/02 05:01:11;;;;;;;1999.90;999.90;;;;;;;5.52;100.00;97152.59;5159710;27;20065;-86
2023/04/02 05:03:45;;;;;;;1999.90;999.90;;;;;;;5.67;100.00;97155.19;5140661;27;20095;-76
2023/04/02 05:06:23;;;;;;;1999.90;999.90;;;;;;;5.72;100.00;97157.06;5133431;27;20391;-73
2023/04/02 05:08:54;;;;;;;1999.90;999.90;;;;;;;5.86;100.00;97163.47;5132754;27;20427;-75
2023/04/02 05:11:32;;;;;;;1999.90;999.90;;;;;;;5.96;100.00;97157.97;5133756;27;20023;-77
2023/04/02 05:14:04;;;;;;;1999.90;999.90;;;;;;;5.44;100.00;97103.59;5113240;27;20035;-75
2023/04/02 05:16:42;;;;;;;1999.90;999.90;;;;;;;5.89;100.00;97165.63;5113309;27;20383;-76
2023/04/02 05:19:16;;;;;;;1999.90;999.90;;;;;;;6.01;100.00;97176.94;5113977;27;20046;-76
2023/04/02 05:21:54;;;;;;;1999.90;999.90;;;;;;;6.04;100.00;97170.13;5132741;27;20392;-76
2023/04/02 05:24:42;;;;;;;1999.90;999.90;;;;;;;6.27;100.00;97183.75;5129623;27;20110;-76
2023/04/02 05:27:24;;;;;;;1999.90;999.90;;;;;;;6.37;100.00;97180.94;5111534;28;20065;-78
2023/04/02 05:30:03;;;;;;;1999.90;999.90;;;;;;;6.61;100.00;97186.34;5111797;28;20031;-75
2023/04/02 05:32:34;;;;;;;1999.90;999.90;;;;;;;6.58;100.00;97186.94;5111240;28;20123;-74
2023/04/02 05:35:04;;;;;;;1999.90;999.90;;;;;;;6.60;100.00;97187.47;5119115;28;20027;-77
2023/04/02 05:37:30;;;;;;;1999.90;999.90;;;;;;;6.84;100.00;97195.63;5112157;28;20041;-76
2023/04/02 05:39:59;;;;;;;1999.90;999.90;;;;;;;6.90;100.00;97199.88;5112030;28;20110;-77
2023/04/02 05:42:33;;;;;;;1999.90;999.90;;;;;;;6.96;100.00;97185.94;5111422;28;20047;-77
2023/04/02 05:45:04;;;;;;;1999.90;999.90;;;;;;;7.04;100.00;97194.56;5113301;28;20556;-77
2023/04/02 05:47:31;;;;;;;1999.90;999.90;;;;;;;7.29;100.00;97200.50;5113801;28;20023;-75
2023/04/02 05:50:03;;;;;;;1999.90;999.90;;;;;;;7.54;100.00;97204.75;5114494;28;20476;-76
2023/04/02 05:52:33;;;;;;;1999.90;999.90;;;;;;;7.82;100.00;97209.25;5110667;28;20034;-75
2023/04/02 05:55:03;;;;;;;1999.90;999.90;;;;;;;8.10;100.00;97204.69;5111004;28;20143;-78
2023/04/02 05:57:36;;;;;;;1999.90;999.90;;;;;;;8.05;100.00;97207.50;5110953;28;20027;-76
2023/04/02 06:00:07;;;;;;;1999.90;999.90;;;;;;;8.35;100.00;97220.66;5093222;28;20403;-76
2023/04/02 06:02:41;;;;;;;1999.90;999.90;;;;;;;8.61;100.00;97215.56;5111000;28;20020;-76
2023/04/02 06:05:21;;;;;;;1999.90;999.90;;;;;;;8.68;100.00;97212.44;5110788;28;20036;-75
2023/04/02 06:08:10;;;;;;;1999.90;999.90;;;;;;;9.10;100.00;97217.59;5144834;27;20043;-75
2023/04/02 06:10:46;;;;;;;1999.90;999.90;;;;;;;9.02;100.00;97218.31;5119310;27;20027;-75
2023/04/02 06:13:17;;;;;;;1999.90;999.90;;;;;;;8.99;100.00;97225.16;5131027;27;20047;-74
2023/04/02 06:15:43;;;;;;;1999.90;999.90;;;;;;;9.17;100.00;97218.00;5112999;27;20048;-76
2023/04/02 06:18:24;;;;;;;1999.90;999.90;;;;;;;9.09;100.00;97221.41;5110811;28;20417;-75
2023/04/02 06:20:50;;;;;;;1999.90;999.90;;;;;;;9.05;100.00;97231.34;5110461;28;20024;-75
2023/04/02 06:23:37;;;;;;;1999.90;999.90;;;;;;;9.18;100.00;97240.63;5129811;27;20023;-74
2023/04/02 06:26:19;;;;;;;1999.90;999.90;;;;;;;9.32;100.00;97234.06;5130757;28;20092;-74
2023/04/02 06:29:05;;;;;;;1999.90;999.90;;;;;;;9.51;100.00;97242.91;5131194;28;20064;-74
2023/04/02 06:32:06;;;;;;;1999.90;999.90;;;;;;;9.85;100.00;97249.81;5130675;28;20031;-74
2023/04/02 06:34:34;;;;;;;1999.90;999.90;;;;;;;9.87;100.00;97247.56;5111816;28;20067;-74
2023/04/02 06:37:02;;;;;;;1999.90;999.90;;;;;;;9.72;100.00;97250.66;5132208;28;20023;-74
2023/04/02 06:39:28;;;;;;;1999.90;999.90;;;;;;;9.63;100.00;97247.84;5131608;28;20059;-74
2023/04/02 06:42:11;;;;;;;1999.90;999.90;;;;;;;9.84;100.00;97250.91;5131145;28;20600;-74
2023/04/02 06:44:37;;;;;;;1999.90;999.90;;;;;;;9.67;100.00;97257.06;5130764;27;20483;-75
2023/04/02 06:47:06;;;;;;;1999.90;999.90;;;;;;;9.78;100.00;97254.88;5131051;27;20062;-74
2023/04/02 06:49:41;;;;;;;1999.90;999.90;;;;;;;9.75;100.00;97269.16;5130777;27;20034;-75
2023/04/02 06:52:18;;;;;;;1999.90;999.90;;;;;;;9.67;100.00;97266.06;5130675;28;20064;-74
2023/04/02 06:54:44;;;;;;;1999.90;999.90;;;;;;;9.80;100.00;97264.41;5130680;27;20019;-74
2023/04/02 06:57:11;;;;;;;1999.90;999.90;;;;;;;9.95;100.00;97271.44;5130731;28;20356;-75
2023/04/02 06:59:36;;;;;;;1999.90;999.90;;;;;;;9.87;100.00;97266.69;5131163;28;20505;-74
2023/04/02 07:02:17;;;;;;;1999.90;999.90;;;;;;;9.83;100.00;97271.19;5113928;27;20025;-73
2023/04/02 07:04:42;;;;;;;1999.90;999.90;;;;;;;9.59;100.00;97282.31;5114449;28;20019;-75
2023/04/02 07:07:08;;;;;;;1999.90;999.90;;;;;;;9.65;100.00;97281.09;5119367;27;20023;-73
2023/04/02 07:09:33;;;;;;;1999.90;999.90;;;;;;;9.79;100.00;97286.56;5134751;27;20043;-74
2023/04/02 07:11:59;;;;;;;1999.90;999.90;;;;;;;9.85;100.00;97282.59;5133823;27;20636;-75
2023/04/02 07:14:24;;;;;;;1999.90;999.90;;;;;;;9.78;100.00;97282.19;5134856;27;20103;-74
2023/04/02 07:16:50;;;;;;;1999.90;999.90;;;;;;;9.85;100.00;97288.06;5134587;27;20029;-75
2023/04/02 07:19:19;;;;;;;1999.90;999.90;;;;;;;9.76;100.00;97290.72;5134235;27;20118;-75
2023/04/02 07:21:44;;;;;;;1999.90;999.90;;;;;;;9.61;100.00;97280.13;5134149;27;20074;-74
2023/04/02 07:24:10;;;;;;;1999.90;999.90;;;;;;;9.56;100.00;97278.28;5134505;27;20061;-74
2023/04/02 07:26:37;;;;;;;1999.90;999.90;;;;;;;9.74;100.00;97292.13;5119087;27;20019;-75
2023/04/02 07:29:06;;;;;;;1999.90;999.90;;;;;;;9.75;100.00;97283.63;5135325;27;20027;-75
2023/04/02 07:31:32;;;;;;;1999.90;999.90;;;;;;;10.01;100.00;97303.00;5136160;27;20075;-75
2023/04/02 07:33:59;;;;;;;1999.90;999.90;;;;;;;10.18;100.00;97295.78;5135979;27;20019;-75
2023/04/02 07:36:27;;;;;;;1999.90;999.90;;;;;;;10.25;100.00;97306.28;5136224;27;20109;-75
2023/04/02 07:38:53;;;;;;;1999.90;999.90;;;;;;;10.38;100.00;97304.63;5133772;27;20031;-76
2023/04/02 07:41:19;;;;;;;1999.90;999.90;;;;;;;10.65;100.00;97308.03;5134039;27;20015;-75
2023/04/02 07:43:45;;;;;;;1999.90;999.90;;;;;;;10.73;100.00;97312.78;5134110;27;20024;-75
2023/04/02 07:46:13;;;;;;;1999.90;999.90;;;;;;;10.95;100.00;97308.38;5134064;27;20024;-79
2023/04/02 07:48:39;;;;;;;1999.90;999.90;;;;;;;11.06;100.00;97317.94;5134527;27;20065;-74
2023/04/02 07:51:14;;;;;;;1999.90;999.90;;;;;;;11.45;100.00;97314.41;5134920;27;20420;-76
2023/04/02 07:53:40;;;;;;;1999.90;999.90;;;;;;;11.41;100.00;97319.72;5135869;27;20504;-73
2023/04/02 07:56:06;;;;;;;1999.90;999.90;;;;;;;11.69;100.00;97331.25;5138757;27;20019;-75
2023/04/02 07:58:32;;;;;;;1999.90;999.90;;;;;;;12.04;100.00;97334.91;5120986;27;20023;-75
2023/04/02 08:00:59;;;;;;;1999.90;999.90;;;;;;;12.65;100.00;97334.66;5135961;27;20360;-80
2023/04/02 08:03:25;;;;;;;1999.90;999.90;;;;;;;13.56;100.00;97338.97;5136290;27;20104;-79
2023/04/02 08:05:55;;;;;;;1999.90;999.90;;;;;;;14.80;100.00;97345.47;5115307;27;20124;-79
2023/04/02 08:08:23;;;;;;;1999.90;999.90;;;;;;;15.44;100.00;97348.53;5114582;28;20511;-81
2023/04/02 08:10:49;;;;;;;1999.90;999.90;;;;;;;14.78;100.00;97339.50;5134457;27;20062;-77
2023/04/02 08:13:16;;;;;;;1999.90;999.90;;;;;;;14.59;100.00;97336.44;5133378;27;20023;-80
2023/04/02 08:15:42;;;;;;;1999.90;999.90;;;;;;;14.69;99.90;97340.72;5132964;27;20163;-75
2023/04/02 08:18:08;;;;;;;1999.90;999.90;;;;;;;15.39;97.92;97347.97;5132551;27;20030;-76
2023/04/02 08:20:33;;;;;;;1999.90;999.90;;;;;;;15.50;96.73;97346.41;5133695;27;20031;-75
2023/04/02 08:22:59;;;;;;;1999.90;999.90;;;;;;;15.09;98.54;97343.75;5132865;27;20027;-76
2023/04/02 08:25:26;;;;;;;1999.90;999.90;;;;;;;15.78;92.90;97344.63;5133148;27;20383;-75
2023/04/02 08:27:51;;;;;;;1999.90;999.90;;;;;;;16.15;85.77;97347.34;5132674;27;20102;-75
2023/04/02 08:30:17;;;;;;;1999.90;999.90;;;;;;;16.12;81.45;97353.56;5130628;27;20186;-77
2023/04/02 08:32:43;;;;;;;1999.90;999.90;;;;;;;16.62;79.39;97345.69;5132765;27;20468;-77
2023/04/02 08:35:10;;;;;;;1999.90;999.90;;;;;;;17.34;74.21;97354.84;5131676;27;20035;-73
2023/04/02 08:37:36;;;;;;;1999.90;999.90;;;;;;;16.84;74.26;97358.19;5132639;27;20022;-74
2023/04/02 08:40:02;;;;;;;1999.90;999.90;;;;;;;17.27;70.73;97365.69;5113948;27;20399;-75
2023/04/02 08:42:44;;;;;;;1999.90;999.90;;;;;;;16.92;70.92;97366.31;5132950;27;20031;-75
2023/04/02 08:45:47;;;;;;;1999.90;999.90;;;;;;;17.26;70.05;97367.66;5114797;27;20035;-73
2023/04/02 08:48:14;;;;;;;1999.90;999.90;;;;;;;16.86;72.47;97362.19;5133341;27;20053;-75
2023/04/02 08:50:41;;;;;;;1999.90;999.90;;;;;;;16.49;74.48;97366.16;5114783;27;20552;-74
2023/04/02 08:53:16;;;;;;;1999.90;999.90;;;;;;;16.72;75.23;97367.31;5114467;27;20027;-75
2023/04/02 08:55:54;;;;;;;1999.90;999.90;;;;;;;16.89;73.10;97371.72;5142178;27;20494;-75
2023/04/02 08:58:43;;;;;;;1999.90;999.90;;;;;;;16.87;74.22;97372.09;5133161;27;20034;-75
2023/04/02 09:01:30;;;;;;;1999.90;999.90;;;;;;;16.82;75.40;97372.31;5113147;27;20031;-76
2023/04/02 09:03:57;;;;;;;1999.90;999.90;;;;;;;16.71;75.96;97364.88;5115959;27;20042;-76
2023/04/02 09:06:23;;;;;;;1999.90;999.90;;;;;;;16.80;76.32;97369.13;5130822;27;20019;-76
2023/04/02 09:08:50;;;;;;;1999.90;999.90;;;;;;;17.20;74.75;97369.06;5130137;27;20095;-76
2023/04/02 09:11:27;;;;;;;1999.90;999.90;;;;;;;17.21;72.48;97378.16;5130947;27;20019;-76
2023/04/02 09:13:59;;;;;;;1999.90;999.90;;;;;;;16.42;74.97;97371.47;5112430;27;20437;-79
2023/04/02 09:16:39;;;;;;;1999.90;999.90;;;;;;;16.40;76.31;97371.84;5132576;27;20019;-75
2023/04/02 09:19:15;;;;;;;1999.90;999.90;;;;;;;16.81;78.44;97376.25;5132593;27;20027;-75
2023/04/02 09:21:47;;;;;;;1999.90;999.90;;;;;;;19.03;66.34;97385.88;5132511;27;20030;-75
2023/04/02 09:24:13;;;;;;;1999.90;999.90;;;;;;;19.57;61.35;97383.84;5133387;27;20019;-74
2023/04/02 09:26:38;;;;;;;1999.90;999.90;;;;;;;20.01;57.21;97388.97;5131774;27;20596;-75
2023/04/02 09:29:06;;;;;;;1999.90;999.90;;;;;;;19.64;55.17;97383.94;5111742;27;20076;-75
2023/04/02 09:32:07;;;;;;;1999.90;999.90;;;;;;;18.90;59.56;97382.44;5131682;27;20035;-74
2023/04/02 09:34:34;;;;;;;1999.90;999.90;;;;;;;18.80;59.65;97387.75;5126996;27;20473;-74
2023/04/02 09:37:18;;;;;;;1999.90;999.90;;;;;;;19.05;57.19;97383.53;5132671;27;20030;-75
2023/04/02 09:39:43;;;;;;;1999.90;999.90;;;;;;;19.81;58.60;97377.13;5115633;27;20488;-75
2023/04/02 09:42:37;;;;;;;1999.90;999.90;;;;;;;21.27;51.11;97389.28;5131254;27;20071;-75
2023/04/02 09:45:19;;;;;;;1999.90;999.90;;;;;;;21.67;50.10;97394.16;5113088;27;20066;-74
2023/04/02 09:47:45;;;;;;;1999.90;999.90;;;;;;;22.25;50.78;97392.34;5124603;27;20023;-74
2023/04/02 09:50:23;;;;;;;1999.90;999.90;;;;;;;23.12;46.48;97396.13;5130521;27;20022;-73
2023/04/02 09:52:50;;;;;;;1999.90;999.90;;;;;;;22.35;49.29;97386.06;5128286;27;20068;-75
2023/04/02 09:55:15;;;;;;;1999.90;999.90;;;;;;;22.37;48.72;97383.66;5130564;27;20026;-74
2023/04/02 09:57:42;;;;;;;1999.90;999.90;;;;;;;21.73;50.98;97387.03;5131403;27;20023;-74
2023/04/02 10:00:17;;;;;;;1999.90;999.90;;;;;;;20.28;53.65;97374.78;5130543;27;20095;-74
2023/04/02 10:02:45;;;;;;;1999.90;999.90;;;;;;;19.57;56.98;97364.41;5138328;27;20023;-74
2023/04/02 10:05:19;;;;;;;1999.90;999.90;;;;;;;20.18;55.83;97364.28;5136402;27;20506;-73
2023/04/02 10:07:51;;;;;;;1999.90;999.90;;;;;;;20.50;55.20;97375.91;5133465;27;20051;-74
2023/04/02 10:10:17;;;;;;;1999.90;999.90;;;;;;;20.02;56.83;97362.78;5112268;27;20062;-74
2023/04/02 10:12:47;;;;;;;1999.90;999.90;;;;;;;19.83;56.95;97372.00;5131001;27;20055;-74
2023/04/02 10:15:22;;;;;;;1999.90;999.90;;;;;;;19.59;56.11;97375.94;5130513;27;20475;-74
2023/04/02 10:17:53;;;;;;;;;;;;;;;19.55;56.08;97368.69;5129145;27;20019;-74
2023/04/02 10:20:25;;;;;;;1999.90;999.90;;;;;;;20.09;54.51;97368.47;5130535;27;19912;-74
2023/04/02 10:22:50;;;;;;;1999.90;999.90;;;;;;;20.20;54.06;97373.03;5130536;27;20052;-75
2023/04/02 10:25:20;;;;;;;1999.90;999.90;;;;;;;20.54;53.74;97371.22;5130164;27;20027;-74
2023/04/02 10:28:21;;;;;;;1999.90;999.90;;;;;;;20.37;52.42;97371.75;5130883;28;20076;-75
2023/04/02 10:30:58;;;;;;;1999.90;999.90;;;;;;;19.43;55.46;97366.91;5116295;28;20057;-75
2023/04/02 10:33:36;;;;;;;1999.90;999.90;;;;;;;21.05;49.62;97368.72;5127137;28;20031;-74
2023/04/02 10:36:20;;;;;;;1999.90;999.90;;;;;;;21.28;44.63;97368.66;5130836;28;20535;-74
2023/04/02 10:39:04;;;;;;;1999.90;999.90;;;;;;;21.06;45.87;97363.97;5135309;27;20027;-75
2023/04/02 10:42:06;;;;;;;1999.90;999.90;;;;;;;21.77;44.08;97377.53;5134883;27;20038;-75
2023/04/02 10:44:50;;;;;;;1999.90;999.90;;;;;;;22.73;40.24;97381.16;5134663;27;20081;-74
2023/04/02 10:47:41;;;;;;;1999.90;999.90;;;;;;;22.27;42.94;97372.47;5135316;27;20395;-74
2023/04/02 10:50:31;;;;;;;1999.90;999.90;;;;;;;22.47;38.96;97370.19;5134777;27;20039;-74
2023/04/02 10:53:03;;;;;;;1999.90;999.90;;;;;;;22.30;40.01;97360.53;5135336;27;20041;-74
2023/04/02 10:55:34;;;;;;;1999.90;999.90;;;;;;;20.81;41.74;97353.31;5137673;27;20054;-74
2023/04/02 10:58:07;;;;;;;1999.90;999.90;;;;;;;21.35;40.29;97361.19;5134577;27;20031;-74
2023/04/02 11:00:36;;;;;;;1999.90;999.90;;;;;;;20.83;40.87;97355.75;5128852;27;20118;-74
2023/04/02 11:03:33;;;;;;;1999.90;999.90;;;;;;;20.98;40.97;97346.41;5128659;27;20660;-74
2023/04/02 11:06:04;;;;;;;1999.90;999.90;;;;;;;21.37;39.60;97352.44;5125661;27;20088;-73
2023/04/02 11:08:32;;;;;;;1999.90;999.90;;;;;;;20.82;39.34;97345.78;5133611;27;20035;-74
2023/04/02 11:11:23;;;;;;;1999.90;999.90;;;;;;;20.20;39.19;97345.25;5108954;27;20058;-73
2023/04/02 11:14:04;;;;;;;1999.90;999.90;;;;;;;20.04;40.46;97350.16;5118409;27;20027;-74
2023/04/02 11:16:30;;;;;;;1999.90;999.90;;;;;;;19.51;42.59;97338.16;5128069;27;20483;-74
2023/04/02 11:19:13;;;;;;;1999.90;999.90;;;;;;;19.97;41.54;97347.25;5131178;27;20056;-74
2023/04/02 11:21:41;;;;;;;1999.90;999.90;;;;;;;20.06;38.58;97345.03;5133335;27;20102;-74
2023/04/02 11:24:28;;;;;;;1999.90;999.90;;;;;;;19.72;37.66;97343.25;5132676;27;20483;-73